createdAt,value
2023-02-15T00:00:26.551Z,60.98
2023-02-15T00:03:18.084Z,60.63
2023-02-15T00:05:46.586Z,60.10
2023-02-15T00:08:14.968Z,59.58
2023-02-15T00:10:43.405Z,58.85
2023-02-15T00:13:11.769Z,59.81
2023-02-15T00:15:40.172Z,61.42
2023-02-15T00:18:08.786Z,63.05
2023-02-15T00:20:37.269Z,64.75
2023-02-15T00:23:05.627Z,64.51
2023-02-15T00:25:34.589Z,63.71
2023-02-15T00:28:03.022Z,62.90
2023-02-15T00:30:32.403Z,62.18
2023-02-15T00:33:00.853Z,61.47
2023-02-15T00:35:29.285Z,60.86
2023-02-15T00:37:57.731Z,60.30
2023-02-15T00:40:26.237Z,59.76
2023-02-15T00:42:54.663Z,59.14
2023-02-15T00:45:23.064Z,58.91
2023-02-15T00:47:51.531Z,60.41
2023-02-15T00:50:21.849Z,61.98
2023-02-15T00:52:52.086Z,64.13
2023-02-15T00:55:22.015Z,64.77
2023-02-15T00:57:51.662Z,64.07
2023-02-15T01:00:20.162Z,63.24
2023-02-15T01:02:48.652Z,62.51
2023-02-15T01:05:17.327Z,61.82
2023-02-15T01:07:45.727Z,61.28
2023-02-15T01:10:14.122Z,60.94
2023-02-15T01:12:42.709Z,60.56
2023-02-15T01:15:11.403Z,60.17
2023-02-15T01:17:39.873Z,59.76
2023-02-15T01:20:09.249Z,59.28
2023-02-15T01:22:37.691Z,58.79
2023-02-15T01:25:06.723Z,60.17
2023-02-15T01:27:35.799Z,61.75
2023-02-15T01:30:05.863Z,63.89
2023-02-15T01:32:34.367Z,65.00
2023-02-15T01:35:04.387Z,64.48
2023-02-15T01:37:34.314Z,63.74
2023-02-15T01:40:06.227Z,62.99
2023-02-15T01:42:35.013Z,62.30
2023-02-15T01:45:19.363Z,61.70
2023-02-15T01:48:06.614Z,61.36
2023-02-15T01:50:42.864Z,60.98
2023-02-15T01:53:17.011Z,60.49
2023-02-15T01:56:08.301Z,60.11
2023-02-15T01:58:38.562Z,59.85
2023-02-15T02:01:09.917Z,59.52
2023-02-15T02:03:57.075Z,59.13
2023-02-15T02:06:27.601Z,59.11
2023-02-15T02:08:57.488Z,60.72
2023-02-15T02:11:28.058Z,62.53
2023-02-15T02:13:57.566Z,64.59
2023-02-15T02:16:44.104Z,64.65
2023-02-15T02:19:40.543Z,63.99
2023-02-15T02:22:33.101Z,63.54
2023-02-15T02:25:19.878Z,62.95
2023-02-15T02:28:17.459Z,62.27
2023-02-15T02:31:12.716Z,61.92
2023-02-15T02:33:49.561Z,61.70
2023-02-15T02:36:26.277Z,61.16
2023-02-15T02:38:56.262Z,60.74
2023-02-15T02:41:44.269Z,60.28
2023-02-15T02:44:26.688Z,60.01
2023-02-15T02:47:04.620Z,59.64
2023-02-15T02:49:37.155Z,58.85
2023-02-15T02:52:09.113Z,59.69
2023-02-15T02:54:37.617Z,61.29
2023-02-15T02:57:10.400Z,62.93
2023-02-15T02:59:46.794Z,64.68
2023-02-15T03:02:23.066Z,64.38
2023-02-15T03:05:04.986Z,63.51
2023-02-15T03:07:37.117Z,62.76
2023-02-15T03:10:08.360Z,62.20
2023-02-15T03:12:41.365Z,61.70
2023-02-15T03:15:20.568Z,61.32
2023-02-15T03:17:57.973Z,60.88
2023-02-15T03:20:33.132Z,60.41
2023-02-15T03:23:08.387Z,59.96
2023-02-15T03:25:45.401Z,59.62
2023-02-15T03:28:23.904Z,59.26
2023-02-15T03:30:57.615Z,58.95
2023-02-15T03:33:29.183Z,60.51
2023-02-15T03:36:09.410Z,62.10
2023-02-15T03:38:44.547Z,64.28
2023-02-15T03:41:15.960Z,64.87
2023-02-15T03:43:56.281Z,64.22
2023-02-15T03:46:31.097Z,63.41
2023-02-15T03:49:13.584Z,62.80
2023-02-15T03:51:47.340Z,62.36
2023-02-15T03:54:41.721Z,61.99
2023-02-15T03:57:42.344Z,61.72
2023-02-15T04:00:32.733Z,61.45
2023-02-15T04:03:16.586Z,61.19
2023-02-15T04:05:46.026Z,60.88
2023-02-15T04:08:14.844Z,60.41
2023-02-15T04:10:57.306Z,60.02
2023-02-15T04:13:32.964Z,59.76
2023-02-15T04:16:05.439Z,59.47
2023-02-15T04:18:55.538Z,58.76
2023-02-15T04:21:44.728Z,59.87
2023-02-15T04:24:32.406Z,61.70
2023-02-15T04:27:02.174Z,63.98
2023-02-15T04:29:30.976Z,64.98
2023-02-15T04:32:02.188Z,64.50
2023-02-15T04:34:30.700Z,63.85
2023-02-15T04:36:59.398Z,63.55
2023-02-15T04:39:27.876Z,63.29
2023-02-15T04:41:56.344Z,63.12
2023-02-15T04:44:24.862Z,62.81
2023-02-15T04:46:53.507Z,62.58
2023-02-15T04:49:21.993Z,62.29
2023-02-15T04:51:50.459Z,62.09
2023-02-15T04:54:18.979Z,61.98
2023-02-15T04:56:48.286Z,61.88
2023-02-15T04:59:16.747Z,61.67
2023-02-15T05:01:45.229Z,61.46
2023-02-15T05:04:14.007Z,61.29
2023-02-15T05:06:42.505Z,61.09
2023-02-15T05:09:12.849Z,60.88
2023-02-15T05:11:41.403Z,60.60
2023-02-15T05:14:10.805Z,60.33
2023-02-15T05:16:39.974Z,60.10
2023-02-15T05:19:08.505Z,59.92
2023-02-15T05:21:37.071Z,59.64
2023-02-15T05:24:25.770Z,59.17
2023-02-15T05:27:12.856Z,59.01
2023-02-15T05:29:41.483Z,60.55
2023-02-15T05:32:10.129Z,62.10
2023-02-15T05:34:38.671Z,64.27
2023-02-15T05:37:09.330Z,64.86
2023-02-15T05:39:37.791Z,64.36
2023-02-15T05:42:06.273Z,63.78
2023-02-15T05:44:34.750Z,63.27
2023-02-15T05:47:04.272Z,62.79
2023-02-15T05:49:32.835Z,62.29
2023-02-15T05:52:01.350Z,61.76
2023-02-15T05:54:30.212Z,61.23
2023-02-15T05:56:58.683Z,60.71
2023-02-15T05:59:27.175Z,60.26
2023-02-15T06:01:55.563Z,59.87
2023-02-15T06:04:24.035Z,59.50
2023-02-15T06:06:52.539Z,58.79
2023-02-15T06:09:21.356Z,59.75
2023-02-15T06:11:49.782Z,61.26
2023-02-15T06:14:18.473Z,62.87
2023-02-15T06:16:46.863Z,64.72
2023-02-15T06:19:15.443Z,64.52
2023-02-15T06:21:43.933Z,63.75
2023-02-15T06:24:12.506Z,62.99
2023-02-15T06:26:40.986Z,62.37
2023-02-15T06:29:09.526Z,61.87
2023-02-15T06:31:38.280Z,61.38
2023-02-15T06:34:07.189Z,60.97
2023-02-15T06:36:35.716Z,60.54
2023-02-15T06:39:05.367Z,60.33
2023-02-15T06:41:33.878Z,60.21
2023-02-15T06:44:02.621Z,60.26
2023-02-15T06:46:31.119Z,60.37
2023-02-15T06:48:59.549Z,60.43
2023-02-15T06:51:28.058Z,60.45
2023-02-15T06:53:56.605Z,60.37
2023-02-15T06:56:25.019Z,60.32
2023-02-15T06:58:54.182Z,60.24
2023-02-15T07:01:22.614Z,60.23
2023-02-15T07:03:51.428Z,60.02
2023-02-15T07:06:19.847Z,60.08
2023-02-15T07:08:48.322Z,59.19
2023-02-15T07:11:35.491Z,59.02
2023-02-15T07:14:04.033Z,60.85
2023-02-15T07:16:32.554Z,62.04
2023-02-15T07:19:01.188Z,64.68
2023-02-15T07:21:29.696Z,64.66
2023-02-15T07:23:58.970Z,63.80
2023-02-15T07:26:28.207Z,62.77
2023-02-15T07:28:56.701Z,61.72
2023-02-15T07:31:25.328Z,60.99
2023-02-15T07:33:53.824Z,59.98
2023-02-15T07:36:22.401Z,59.07
2023-02-15T07:38:51.100Z,58.65
2023-02-15T07:41:20.379Z,59.84
2023-02-15T07:43:49.025Z,61.89
2023-02-15T07:46:19.000Z,63.63
2023-02-15T07:48:48.620Z,64.56
2023-02-15T07:51:17.343Z,63.45
2023-02-15T07:53:48.291Z,62.21
2023-02-15T07:56:17.150Z,61.33
2023-02-15T07:58:55.326Z,60.47
2023-02-15T08:01:27.569Z,59.88
2023-02-15T08:03:56.543Z,58.96
2023-02-15T08:06:27.679Z,59.23
2023-02-15T08:08:56.971Z,61.10
2023-02-15T08:11:40.894Z,62.63
2023-02-15T08:14:21.558Z,63.70
2023-02-15T08:17:00.646Z,63.21
2023-02-15T08:19:33.898Z,62.00
2023-02-15T08:22:08.047Z,60.59
2023-02-15T08:24:38.317Z,59.71
2023-02-15T08:27:09.022Z,59.11
2023-02-15T08:29:38.935Z,60.71
2023-02-15T08:32:10.633Z,62.62
2023-02-15T08:34:42.563Z,63.53
2023-02-15T08:37:11.122Z,62.18
2023-02-15T08:39:39.803Z,61.04
2023-02-15T08:42:08.323Z,59.89
2023-02-15T08:44:36.792Z,58.37
2023-02-15T08:47:05.364Z,59.21
2023-02-15T08:49:35.201Z,61.16
2023-02-15T08:52:04.089Z,62.79
2023-02-15T08:54:32.761Z,63.09
2023-02-15T08:57:01.284Z,62.32
2023-02-15T08:59:29.831Z,61.01
2023-02-15T09:01:58.392Z,60.02
2023-02-15T09:04:26.915Z,58.50
2023-02-15T09:06:56.427Z,59.21
2023-02-15T09:09:24.864Z,60.83
2023-02-15T09:11:58.715Z,61.73
2023-02-15T09:14:28.568Z,62.82
2023-02-15T09:16:57.985Z,62.77
2023-02-15T09:19:26.601Z,61.56
2023-02-15T09:21:55.213Z,60.16
2023-02-15T09:24:23.834Z,58.85
2023-02-15T09:26:52.595Z,59.56
2023-02-15T09:29:21.464Z,61.10
2023-02-15T09:31:52.037Z,61.68
2023-02-15T09:34:23.074Z,62.56
2023-02-15T09:36:52.407Z,62.81
2023-02-15T09:39:26.112Z,61.49
2023-02-15T09:42:34.297Z,59.13
2023-02-15T09:45:08.137Z,59.24
2023-02-15T09:48:07.428Z,60.56
2023-02-15T09:50:46.864Z,60.87
2023-02-15T09:53:18.928Z,62.09
2023-02-15T09:56:08.376Z,62.79
2023-02-15T09:58:51.924Z,60.24
2023-02-15T10:01:42.442Z,59.45
2023-02-15T10:04:20.889Z,59.97
2023-02-15T10:06:49.242Z,60.10
2023-02-15T10:09:29.895Z,60.83
2023-02-15T10:12:24.093Z,60.85
2023-02-15T10:15:16.682Z,61.88
2023-02-15T10:18:02.068Z,61.01
2023-02-15T10:20:30.745Z,58.54
2023-02-15T10:23:30.218Z,59.64
2023-02-15T10:26:27.565Z,60.28
2023-02-15T10:29:03.980Z,60.56
2023-02-15T10:31:41.567Z,62.03
2023-02-15T10:34:38.269Z,61.06
2023-02-15T10:37:39.315Z,58.80
2023-02-15T10:41:05.879Z,58.15
2023-02-15T10:43:45.481Z,59.61
2023-02-15T10:46:14.001Z,62.35
2023-02-15T10:49:05.200Z,59.62
2023-02-15T10:51:55.577Z,58.90
2023-02-15T10:54:30.575Z,59.19
2023-02-15T10:57:10.590Z,60.26
2023-02-15T11:00:10.977Z,60.70
2023-02-15T11:02:55.191Z,59.68
2023-02-15T11:05:45.992Z,59.44
2023-02-15T11:08:14.521Z,58.10
2023-02-15T11:10:42.933Z,60.27
2023-02-15T11:13:20.705Z,60.32
2023-02-15T11:16:03.665Z,60.33
2023-02-15T11:18:32.286Z,59.36
2023-02-15T11:21:04.304Z,58.84
2023-02-15T11:23:36.954Z,60.78
2023-02-15T11:26:14.634Z,58.99
2023-02-15T11:29:00.831Z,58.55
2023-02-15T11:31:56.985Z,57.59
2023-02-15T11:34:38.850Z,56.66
2023-02-15T11:37:17.077Z,54.65
2023-02-15T11:39:45.698Z,53.19
2023-02-15T11:42:22.027Z,56.07
2023-02-15T11:44:53.616Z,55.56
2023-02-15T11:47:22.115Z,53.69
2023-02-15T11:49:50.800Z,54.00
2023-02-15T11:52:20.206Z,52.31
2023-02-15T11:54:51.631Z,49.82
2023-02-15T11:57:39.881Z,46.56
2023-02-15T12:00:14.810Z,46.70
2023-02-15T12:02:49.582Z,47.66
2023-02-15T12:05:23.878Z,45.59
2023-02-15T12:08:05.463Z,44.05
2023-02-15T12:10:42.839Z,43.89
2023-02-15T12:13:19.011Z,44.29
2023-02-15T12:15:51.318Z,42.58
2023-02-15T12:18:40.472Z,41.19
2023-02-15T12:21:14.736Z,40.49
2023-02-15T12:23:51.793Z,41.55
2023-02-15T12:26:32.612Z,39.85
2023-02-15T12:29:08.664Z,37.03
2023-02-15T12:31:51.129Z,36.19
2023-02-15T12:34:26.147Z,38.75
2023-02-15T12:36:59.269Z,37.37
2023-02-15T12:39:34.309Z,35.93
2023-02-15T12:42:16.683Z,36.14
2023-02-15T12:44:55.716Z,36.64
2023-02-15T12:47:28.990Z,35.34
2023-02-15T12:50:24.061Z,35.86
2023-02-15T12:53:15.108Z,35.36
2023-02-15T12:55:59.135Z,34.13
2023-02-15T12:58:31.451Z,32.62
2023-02-15T13:01:13.571Z,32.59
2023-02-15T13:04:04.634Z,31.17
2023-02-15T13:06:36.498Z,30.73
2023-02-15T13:09:33.976Z,30.86
2023-02-15T13:12:24.643Z,32.28
2023-02-15T13:14:56.267Z,31.35
2023-02-15T13:17:45.248Z,31.21
2023-02-15T13:20:25.128Z,30.04
2023-02-15T13:22:59.547Z,29.97
2023-02-15T13:25:33.119Z,29.93
2023-02-15T13:28:05.960Z,31.95
2023-02-15T13:30:39.467Z,30.74
2023-02-15T13:33:36.305Z,28.31
2023-02-15T13:36:21.561Z,30.57
2023-02-15T13:39:09.777Z,31.04
2023-02-15T13:42:06.356Z,30.03
2023-02-15T13:45:04.596Z,28.23
2023-02-15T13:47:49.941Z,27.31
2023-02-15T13:50:36.971Z,28.17
2023-02-15T13:53:08.362Z,28.62
2023-02-15T13:55:49.360Z,28.16
2023-02-15T13:58:52.781Z,27.93
2023-02-15T14:01:49.879Z,26.87
2023-02-15T14:04:42.986Z,26.92
2023-02-15T14:07:20.525Z,26.67
2023-02-15T14:10:28.251Z,26.51
2023-02-15T14:13:02.905Z,27.79
2023-02-15T14:15:50.338Z,27.39
2023-02-15T14:18:27.043Z,27.11
2023-02-15T14:21:19.373Z,28.04
2023-02-15T14:24:02.988Z,27.57
2023-02-15T14:26:44.535Z,27.58
2023-02-15T14:29:42.671Z,28.53
2023-02-15T14:32:22.733Z,28.88
2023-02-15T14:34:58.462Z,28.56
2023-02-15T14:37:41.314Z,30.80
2023-02-15T14:40:49.311Z,30.49
2023-02-15T14:43:42.134Z,32.25
2023-02-15T14:46:33.107Z,33.17
2023-02-15T14:49:12.501Z,34.75
2023-02-15T14:51:44.354Z,35.76
2023-02-15T14:54:35.810Z,36.77
2023-02-15T14:57:04.396Z,38.16
2023-02-15T14:59:38.925Z,39.22
2023-02-15T15:02:07.592Z,40.33
2023-02-15T15:04:54.505Z,41.29
2023-02-15T15:07:25.918Z,42.57
2023-02-15T15:10:03.566Z,43.37
2023-02-15T15:12:35.559Z,43.95
2023-02-15T15:15:05.224Z,44.48
2023-02-15T15:17:39.377Z,45.70
2023-02-15T15:20:35.719Z,46.27
2023-02-15T15:23:16.230Z,46.69
2023-02-15T15:25:49.144Z,47.92
2023-02-15T15:28:36.098Z,48.97
2023-02-15T15:31:23.079Z,48.90
2023-02-15T15:34:13.730Z,50.16
2023-02-15T15:37:02.692Z,50.88
2023-02-15T15:40:12.148Z,51.92
2023-02-15T15:43:06.429Z,52.86
2023-02-15T15:45:44.198Z,52.72
2023-02-15T15:48:37.788Z,53.52
2023-02-15T15:51:30.806Z,53.57
2023-02-15T15:53:59.388Z,54.13
2023-02-15T15:56:32.577Z,54.76
2023-02-15T15:59:08.312Z,56.15
2023-02-15T16:01:42.443Z,56.56
2023-02-15T16:04:25.374Z,57.01
2023-02-15T16:06:54.182Z,57.61
2023-02-15T16:09:25.323Z,58.29
2023-02-15T16:11:59.620Z,59.28
2023-02-15T16:14:40.833Z,60.05
2023-02-15T16:17:24.165Z,61.07
2023-02-15T16:19:55.109Z,61.17
2023-02-15T16:22:27.957Z,61.76
2023-02-15T16:25:14.383Z,61.74
2023-02-15T16:27:48.178Z,61.91
2023-02-15T16:30:24.619Z,63.13
2023-02-15T16:33:18.117Z,64.07
2023-02-15T16:35:58.480Z,62.31
2023-02-15T16:38:45.740Z,60.12
2023-02-15T16:41:17.138Z,58.80
2023-02-15T16:43:48.467Z,58.23
2023-02-15T16:46:28.136Z,58.91
2023-02-15T16:49:02.608Z,59.19
2023-02-15T16:51:34.132Z,60.34
2023-02-15T16:54:15.732Z,60.98
2023-02-15T16:56:47.478Z,61.34
2023-02-15T16:59:45.806Z,62.13
2023-02-15T17:02:40.268Z,63.81
2023-02-15T17:05:18.819Z,63.98
2023-02-15T17:08:05.577Z,62.38
2023-02-15T17:10:43.456Z,61.29
2023-02-15T17:13:17.484Z,60.13
2023-02-15T17:16:06.455Z,59.11
2023-02-15T17:18:45.434Z,57.24
2023-02-15T17:21:29.113Z,57.97
2023-02-15T17:24:05.300Z,59.20
2023-02-15T17:26:39.006Z,59.91
2023-02-15T17:29:32.367Z,60.95
2023-02-15T17:32:03.132Z,61.67
2023-02-15T17:34:50.192Z,63.37
2023-02-15T17:37:33.790Z,62.85
2023-02-15T17:40:15.846Z,62.09
2023-02-15T17:42:44.382Z,61.28
2023-02-15T17:45:15.170Z,60.44
2023-02-15T17:47:44.820Z,58.88
2023-02-15T17:50:34.312Z,59.12
2023-02-15T17:53:02.972Z,60.29
2023-02-15T17:55:40.337Z,61.65
2023-02-15T17:58:14.873Z,62.31
2023-02-15T18:01:14.545Z,64.33
2023-02-15T18:04:10.796Z,64.05
2023-02-15T18:07:00.616Z,62.81
2023-02-15T18:09:47.759Z,61.67
2023-02-15T18:12:33.790Z,60.82
2023-02-15T18:15:03.433Z,59.93
2023-02-15T18:17:42.970Z,58.84
2023-02-15T18:20:27.303Z,59.25
2023-02-15T18:22:55.820Z,60.44
2023-02-15T18:25:27.078Z,61.61
2023-02-15T18:27:55.608Z,63.05
2023-02-15T18:30:28.043Z,64.48
2023-02-15T18:32:58.746Z,63.91
2023-02-15T18:35:32.174Z,62.78
2023-02-15T18:38:02.359Z,61.62
2023-02-15T18:40:31.021Z,60.54
2023-02-15T18:42:59.619Z,59.49
2023-02-15T18:45:33.287Z,58.41
2023-02-15T18:48:02.327Z,59.41
2023-02-15T18:50:34.720Z,60.73
2023-02-15T18:53:07.056Z,61.96
2023-02-15T18:55:35.798Z,63.71
2023-02-15T18:58:04.874Z,64.16
2023-02-15T19:00:35.397Z,63.26
2023-02-15T19:03:03.970Z,62.24
2023-02-15T19:05:33.795Z,61.48
2023-02-15T19:08:03.525Z,60.85
2023-02-15T19:10:34.120Z,60.42
2023-02-15T19:13:02.595Z,60.12
2023-02-15T19:15:32.126Z,59.87
2023-02-15T19:18:00.636Z,59.32
2023-02-15T19:20:37.392Z,58.59
2023-02-15T19:23:19.291Z,59.42
2023-02-15T19:25:50.006Z,60.60
2023-02-15T19:28:33.865Z,62.27
2023-02-15T19:31:02.469Z,64.66
2023-02-15T19:33:31.275Z,64.52
2023-02-15T19:35:59.802Z,63.93
2023-02-15T19:38:32.886Z,63.06
2023-02-15T19:41:06.356Z,62.11
2023-02-15T19:43:36.167Z,61.59
2023-02-15T19:46:05.236Z,61.40
2023-02-15T19:48:34.075Z,60.90
2023-02-15T19:51:03.955Z,60.57
2023-02-15T19:53:32.579Z,60.52
2023-02-15T19:56:01.186Z,60.23
2023-02-15T19:58:30.331Z,59.88
2023-02-15T20:00:58.781Z,59.62
2023-02-15T20:03:27.226Z,59.30
2023-02-15T20:05:55.860Z,58.94
2023-02-15T20:08:24.575Z,60.18
2023-02-15T20:10:53.167Z,61.78
2023-02-15T20:13:21.806Z,63.64
2023-02-15T20:15:52.096Z,64.90
2023-02-15T20:18:22.580Z,64.48
2023-02-15T20:20:54.636Z,63.84
2023-02-15T20:23:30.621Z,63.18
2023-02-15T20:26:02.392Z,62.60
2023-02-15T20:28:32.083Z,62.06
2023-02-15T20:31:00.784Z,61.49
2023-02-15T20:33:29.559Z,61.07
2023-02-15T20:35:59.841Z,60.59
2023-02-15T20:38:31.309Z,60.19
2023-02-15T20:41:19.844Z,59.69
2023-02-15T20:43:48.854Z,58.82
2023-02-15T20:46:17.374Z,59.53
2023-02-15T20:48:45.830Z,61.05
2023-02-15T20:51:19.416Z,62.62
2023-02-15T20:53:48.547Z,64.45
2023-02-15T20:56:22.832Z,64.44
2023-02-15T20:58:53.069Z,63.81
2023-02-15T21:01:21.699Z,63.10
2023-02-15T21:03:50.408Z,62.48
2023-02-15T21:06:18.945Z,61.72
2023-02-15T21:08:47.387Z,61.18
2023-02-15T21:11:23.329Z,60.96
2023-02-15T21:13:51.884Z,60.70
2023-02-15T21:16:20.746Z,60.31
2023-02-15T21:18:49.609Z,60.13
2023-02-15T21:21:23.970Z,59.96
2023-02-15T21:23:54.085Z,59.71
2023-02-15T21:26:23.636Z,59.04
2023-02-15T21:28:52.422Z,58.87
2023-02-15T21:31:24.114Z,60.26
2023-02-15T21:33:52.936Z,61.56
2023-02-15T21:36:25.563Z,62.99
2023-02-15T21:38:54.095Z,64.31
2023-02-15T21:41:43.305Z,63.88
2023-02-15T21:44:42.138Z,62.95
2023-02-15T21:47:45.501Z,62.12
2023-02-15T21:50:40.572Z,61.41
2023-02-15T21:53:20.129Z,61.17
2023-02-15T21:55:49.257Z,60.93
2023-02-15T21:58:24.884Z,60.65
2023-02-15T22:00:57.850Z,60.45
2023-02-15T22:03:38.347Z,60.57
2023-02-15T22:06:06.967Z,60.56
2023-02-15T22:08:35.526Z,60.68
2023-02-15T22:11:09.074Z,60.77
2023-02-15T22:13:38.384Z,60.82
2023-02-15T22:16:07.300Z,60.45
2023-02-15T22:18:35.938Z,60.24
2023-02-15T22:21:04.841Z,60.07
2023-02-15T22:23:33.746Z,59.82
2023-02-15T22:26:12.579Z,59.38
2023-02-15T22:28:42.828Z,58.80
2023-02-15T22:31:14.626Z,59.84
2023-02-15T22:33:45.012Z,60.89
2023-02-15T22:36:26.346Z,61.99
2023-02-15T22:38:55.531Z,63.81
2023-02-15T22:41:27.871Z,64.74
2023-02-15T22:43:57.110Z,64.02
2023-02-15T22:46:26.421Z,63.15
2023-02-15T22:48:55.081Z,62.29
2023-02-15T22:51:25.107Z,62.08
2023-02-15T22:53:54.051Z,62.65
2023-02-15T22:56:32.624Z,62.69
2023-02-15T22:59:04.700Z,62.64
2023-02-15T23:01:36.326Z,62.24
2023-02-15T23:04:05.086Z,61.73
2023-02-15T23:06:34.850Z,61.19
2023-02-15T23:09:03.526Z,60.59
2023-02-15T23:11:32.037Z,60.18
2023-02-15T23:14:03.363Z,60.06
2023-02-15T23:16:32.734Z,59.94
2023-02-15T23:19:01.431Z,59.83
2023-02-15T23:21:34.388Z,59.63
2023-02-15T23:24:20.252Z,59.65
2023-02-15T23:26:51.111Z,59.51
2023-02-15T23:29:22.489Z,58.97
2023-02-15T23:31:54.902Z,59.59
2023-02-15T23:34:31.849Z,61.07
2023-02-15T23:37:00.562Z,62.69
2023-02-15T23:39:47.694Z,64.93
2023-02-15T23:42:20.385Z,65.02
2023-02-15T23:44:49.465Z,64.46
2023-02-15T23:47:42.181Z,63.85
2023-02-15T23:50:23.852Z,63.29
2023-02-15T23:52:54.362Z,62.71
2023-02-15T23:55:24.614Z,62.09
2023-02-15T23:57:54.103Z,61.57
